Time;durP1;ratioP1;P1;durP2;ratioP2;P2;SDS_P1;SDS_P2;PMS_P1;PMS_P2;Temp;Humidity;BMP_temperature;BMP_pressure;BME280_temperature;BME280_humidity;BME280_pressure;Samples;Min_cycle;Max_cycle;Signal;HPM_P1;HPM_P2
2022/02/12 00:02:11;;;;;;;12.40;10.23;;;1.10;99.90;;;;;;4974688;28;20172;-70
2022/02/12 00:04:37;;;;;;;17.43;11.70;;;1.10;99.90;;;;;;4974171;28;20196;-72
2022/02/12 00:07:03;;;;;;;13.67;9.63;;;1.10;99.90;;;;;;4974251;28;20250;-71
2022/02/12 00:09:28;;;;;;;15.53;11.13;;;1.10;99.90;;;;;;4974492;28;20200;-71
2022/02/12 00:11:54;;;;;;;14.03;10.13;;;1.00;99.90;;;;;;4974417;28;20455;-70
2022/02/12 00:14:19;;;;;;;18.80;12.13;;;1.00;99.90;;;;;;4974294;28;20580;-71
2022/02/12 00:16:45;;;;;;;31.17;14.50;;;0.80;99.90;;;;;;4974001;28;20200;-72
2022/02/12 00:19:11;;;;;;;34.70;19.20;;;0.70;99.90;;;;;;4974296;28;20180;-70
2022/02/12 00:21:36;;;;;;;32.70;18.17;;;0.50;99.90;;;;;;4974329;28;20232;-71
2022/02/12 00:24:02;;;;;;;30.33;16.43;;;0.50;99.90;;;;;;4974224;28;20752;-72
2022/02/12 00:26:28;;;;;;;79.50;21.30;;;0.50;99.90;;;;;;4973865;28;20527;-71
2022/02/12 00:28:53;;;;;;;42.30;19.17;;;0.70;99.90;;;;;;4974081;28;20793;-71
2022/02/12 00:31:19;;;;;;;60.20;21.73;;;0.80;99.90;;;;;;4974119;28;20650;-72
2022/02/12 00:33:44;;;;;;;180.43;27.87;;;0.90;99.90;;;;;;4974016;28;20283;-72
2022/02/12 00:36:10;;;;;;;94.70;25.00;;;0.90;99.90;;;;;;4973815;28;20199;-71
2022/02/12 00:38:35;;;;;;;135.70;27.47;;;0.90;99.90;;;;;;4974144;28;20172;-71
2022/02/12 00:41:01;;;;;;;116.07;25.97;;;0.90;99.90;;;;;;4974031;28;20173;-71
2022/02/12 00:43:26;;;;;;;165.93;26.07;;;1.00;99.90;;;;;;4973931;28;20203;-70
2022/02/12 00:45:52;;;;;;;86.23;22.87;;;1.00;99.90;;;;;;4973722;28;20180;-71
2022/02/12 00:48:17;;;;;;;100.77;22.83;;;1.20;99.90;;;;;;4973812;28;20188;-72
2022/02/12 00:50:43;;;;;;;128.63;23.50;;;1.20;99.90;;;;;;4973716;28;20176;-72
2022/02/12 00:53:09;;;;;;;94.10;22.60;;;1.10;99.90;;;;;;4973759;28;20192;-72
2022/02/12 00:55:34;;;;;;;71.83;21.63;;;1.00;99.90;;;;;;4973350;28;20516;-71
2022/02/12 00:58:00;;;;;;;73.27;20.43;;;1.00;99.90;;;;;;4973638;28;20173;-70
2022/02/12 01:00:25;;;;;;;128.50;22.63;;;0.90;99.90;;;;;;4973685;28;20172;-70
2022/02/12 01:02:51;;;;;;;110.07;22.50;;;0.90;99.90;;;;;;4973557;28;20212;-71
2022/02/12 01:05:17;;;;;;;106.80;22.93;;;1.00;99.90;;;;;;4973235;28;20180;-71
2022/02/12 01:07:43;;;;;;;65.03;20.50;;;1.10;99.90;;;;;;4973475;28;20423;-70
2022/02/12 01:10:09;;;;;;;87.33;20.47;;;1.20;99.90;;;;;;4973453;28;20810;-71
2022/02/12 01:12:35;;;;;;;110.27;23.77;;;1.20;99.90;;;;;;4973377;28;20176;-71
2022/02/12 01:15:02;;;;;;;88.83;21.90;;;1.10;99.90;;;;;;4973088;28;20451;-70
2022/02/12 01:17:29;;;;;;;87.77;21.67;;;1.10;99.90;;;;;;4972430;28;20831;-70
2022/02/12 01:19:56;;;;;;;89.23;21.47;;;1.20;99.90;;;;;;4973328;28;20441;-71
2022/02/12 01:22:23;;;;;;;104.20;22.97;;;1.20;99.90;;;;;;4973454;28;20415;-71
2022/02/12 01:24:49;;;;;;;90.93;20.70;;;1.30;99.90;;;;;;4973382;28;21019;-71
2022/02/12 01:27:15;;;;;;;91.47;21.50;;;1.30;99.90;;;;;;4973079;28;20511;-71
2022/02/12 01:29:41;;;;;;;44.97;18.70;;;1.30;99.90;;;;;;4973384;28;20423;-70
2022/02/12 01:32:07;;;;;;;78.03;19.13;;;1.30;99.90;;;;;;4973314;28;20416;-70
2022/02/12 01:34:34;;;;;;;60.07;20.40;;;1.40;99.90;;;;;;4988016;28;20247;-70
2022/02/12 01:37:04;;;;;;;36.33;17.70;;;1.30;99.90;;;;;;4972901;28;20459;-71
2022/02/12 01:39:30;;;;;;;30.93;17.50;;;1.20;99.90;;;;;;4973368;28;20572;-70
2022/02/12 01:41:56;;;;;;;95.03;19.50;;;1.00;99.90;;;;;;4973276;28;20546;-70
2022/02/12 01:44:33;;;;;;;38.90;17.33;;;1.00;99.90;;;;;;4973312;28;20203;-71
2022/02/12 01:47:00;;;;;;;43.03;17.87;;;1.00;99.90;;;;;;4972838;28;20446;-71
2022/02/12 01:49:26;;;;;;;30.80;15.83;;;1.00;99.90;;;;;;4973122;28;20420;-71
2022/02/12 01:51:53;;;;;;;36.40;16.77;;;1.00;99.90;;;;;;4973003;28;20434;-71
2022/02/12 01:54:20;;;;;;;23.40;14.90;;;1.00;99.90;;;;;;4972877;28;20448;-71
2022/02/12 01:56:46;;;;;;;20.80;15.60;;;0.90;99.90;;;;;;4972673;28;20467;-70
2022/02/12 01:59:12;;;;;;;48.90;18.90;;;0.90;99.90;;;;;;4973033;28;20420;-71
2022/02/12 02:01:38;;;;;;;37.33;17.27;;;0.80;99.90;;;;;;4973100;28;20415;-71
2022/02/12 02:04:04;;;;;;;63.33;19.33;;;0.70;99.90;;;;;;4972813;28;20436;-71
2022/02/12 02:06:29;;;;;;;77.50;19.93;;;0.70;99.90;;;;;;4972652;28;20172;-71
2022/02/12 02:08:55;;;;;;;37.57;16.97;;;0.70;99.90;;;;;;4972870;28;20196;-71
2022/02/12 02:11:21;;;;;;;52.77;18.83;;;0.60;99.90;;;;;;4972869;28;20181;-70
2022/02/12 02:13:47;;;;;;;26.67;17.03;;;0.60;99.90;;;;;;4972813;28;20577;-71
2022/02/12 02:16:14;;;;;;;60.57;19.70;;;0.60;99.90;;;;;;4972498;28;20462;-71
2022/02/12 02:18:40;;;;;;;40.23;18.33;;;0.60;99.90;;;;;;4972813;28;20531;-71
2022/02/12 02:21:07;;;;;;;22.87;15.37;;;0.50;99.90;;;;;;4972814;28;20442;-71
2022/02/12 02:23:34;;;;;;;59.33;19.00;;;0.50;99.90;;;;;;4972742;28;20443;-71
2022/02/12 02:26:01;;;;;;;38.40;14.73;;;0.40;99.90;;;;;;4972422;28;20502;-70
2022/02/12 02:28:26;;;;;;;31.90;14.93;;;0.40;99.90;;;;;;4974278;28;20419;-71
2022/02/12 02:30:52;;;;;;;17.87;14.07;;;0.40;99.90;;;;;;4976337;28;20510;-71
2022/02/12 02:33:17;;;;;;;16.23;13.70;;;0.40;99.90;;;;;;4976237;28;20246;-71
2022/02/12 02:35:43;;;;;;;17.83;12.40;;;0.40;99.90;;;;;;4975809;28;20168;-71
2022/02/12 02:38:13;;;;;;;17.13;13.37;;;0.30;99.90;;;;;;4976145;28;20168;-71
2022/02/12 02:40:39;;;;;;;15.17;12.63;;;0.30;99.90;;;;;;4976214;28;20164;-71
2022/02/12 02:43:05;;;;;;;17.70;12.83;;;0.30;99.90;;;;;;4976232;28;20590;-70
2022/02/12 02:45:31;;;;;;;13.03;11.70;;;0.30;99.90;;;;;;4975817;28;20917;-70
2022/02/12 02:47:58;;;;;;;21.17;12.80;;;0.30;99.90;;;;;;4975855;28;20270;-71
2022/02/12 02:56:05;;;;;;;20.40;13.20;;;0.30;99.90;;;;;;4975527;28;21015;-71
2022/02/12 02:58:48;;;;;;;18.70;14.50;;;0.20;99.90;;;;;;4975842;28;20451;-70
2022/02/12 03:01:19;;;;;;;20.27;14.13;;;0.20;99.90;;;;;;4975768;28;20491;-71
2022/02/12 03:03:50;;;;;;;17.57;14.03;;;0.20;99.90;;;;;;4975693;28;20466;-71
2022/02/12 03:06:17;;;;;;;20.80;13.63;;;0.20;99.90;;;;;;4975477;28;20431;-71
2022/02/12 03:08:43;;;;;;;18.87;13.60;;;0.20;99.90;;;;;;4975626;28;20423;-71
2022/02/12 03:11:12;;;;;;;18.20;13.43;;;0.20;99.90;;;;;;4975424;28;20420;-69
2022/02/12 03:13:39;;;;;;;17.63;14.20;;;0.20;99.90;;;;;;4975434;28;20451;-70
2022/02/12 03:16:08;;;;;;;21.30;14.03;;;0.20;99.90;;;;;;4975113;28;20979;-71
2022/02/12 03:18:34;;;;;;;17.30;12.60;;;0.20;99.90;;;;;;4975440;28;20506;-71
2022/02/12 03:21:00;;;;;;;18.10;14.07;;;0.20;99.90;;;;;;4975399;28;20419;-71
2022/02/12 03:23:25;;;;;;;23.20;14.30;;;0.20;99.90;;;;;;4975332;28;20431;-71
2022/02/12 03:25:51;;;;;;;22.43;14.17;;;0.20;99.90;;;;;;4974968;28;20184;-71
2022/02/12 03:28:16;;;;;;;16.93;13.00;;;0.10;99.90;;;;;;4975282;28;20179;-71
2022/02/12 03:30:45;;;;;;;18.17;12.20;;;0.00;99.90;;;;;;4975197;28;20177;-71
2022/02/12 03:33:11;;;;;;;15.80;13.77;;;0.00;99.90;;;;;;4975077;28;20196;-70
2022/02/12 03:35:37;;;;;;;18.43;13.00;;;0.00;99.90;;;;;;4974684;28;20844;-69
2022/02/12 03:38:11;;;;;;;19.40;13.23;;;0.00;99.90;;;;;;4975100;28;20424;-71
2022/02/12 03:40:44;;;;;;;22.23;14.13;;;0.00;99.90;;;;;;4974185;28;20242;-71
2022/02/12 03:43:10;;;;;;;17.73;12.40;;;0.00;99.90;;;;;;4975048;28;20956;-71
2022/02/12 03:45:36;;;;;;;16.90;12.53;;;-0.10;99.90;;;;;;4974674;28;20426;-70
2022/02/12 03:48:03;;;;;;;20.97;14.53;;;-0.10;99.90;;;;;;4974709;28;20453;-70
2022/02/12 03:50:31;;;;;;;14.03;12.53;;;0.00;99.90;;;;;;4974791;28;20420;-70
2022/02/12 03:53:01;;;;;;;16.30;12.33;;;0.00;99.90;;;;;;4974641;28;20416;-70
2022/02/12 03:55:27;;;;;;;19.33;11.37;;;0.00;99.90;;;;;;4974443;28;20914;-70
2022/02/12 03:57:53;;;;;;;15.93;12.73;;;0.00;99.90;;;;;;4974618;28;20491;-69
2022/02/12 04:00:19;;;;;;;21.60;12.27;;;0.00;99.90;;;;;;4974686;28;20427;-69
2022/02/12 04:02:45;;;;;;;14.53;11.37;;;0.00;99.90;;;;;;4974516;28;20415;-71
2022/02/12 04:05:14;;;;;;;17.27;12.03;;;0.00;99.90;;;;;;4974344;28;20466;-70
2022/02/12 04:07:42;;;;;;;18.53;12.03;;;-0.10;99.90;;;;;;4974520;28;20173;-70
2022/02/12 04:10:10;;;;;;;15.57;11.90;;;-0.10;99.90;;;;;;4974462;28;20490;-70
2022/02/12 04:12:35;;;;;;;21.60;12.73;;;-0.10;99.90;;;;;;4974470;28;20840;-71
2022/02/12 04:15:01;;;;;;;16.30;12.73;;;-0.10;99.90;;;;;;4973990;28;20531;-71
2022/02/12 04:17:27;;;;;;;17.03;11.73;;;-0.10;99.90;;;;;;4974273;28;20238;-71
2022/02/12 04:19:52;;;;;;;18.17;12.40;;;-0.10;99.90;;;;;;4974340;28;20525;-71
2022/02/12 04:22:18;;;;;;;16.70;13.07;;;-0.10;99.90;;;;;;4974328;28;20169;-71
2022/02/12 04:24:43;;;;;;;23.50;12.43;;;-0.10;99.90;;;;;;4974595;28;20188;-70
2022/02/12 04:27:09;;;;;;;17.03;13.00;;;-0.10;99.90;;;;;;4973949;28;20634;-71
2022/02/12 04:29:35;;;;;;;16.03;12.83;;;-0.10;99.90;;;;;;4972822;28;20479;-70
2022/02/12 04:32:00;;;;;;;17.00;12.73;;;-0.20;99.90;;;;;;4974091;28;20180;-70
2022/02/12 04:34:26;;;;;;;19.70;12.93;;;-0.20;99.90;;;;;;4973922;28;20685;-71
2022/02/12 04:36:53;;;;;;;15.83;13.37;;;-0.20;99.90;;;;;;4973629;28;20215;-71
2022/02/12 04:39:19;;;;;;;15.50;12.50;;;-0.20;99.90;;;;;;4973954;28;20175;-70
2022/02/12 04:41:45;;;;;;;12.70;10.70;;;-0.20;99.90;;;;;;4974030;28;20408;-69
2022/02/12 04:44:11;;;;;;;17.40;12.80;;;-0.20;99.90;;;;;;4973768;28;20247;-71
2022/02/12 04:46:38;;;;;;;22.50;13.47;;;-0.30;99.90;;;;;;4973519;28;20762;-71
2022/02/12 04:49:05;;;;;;;19.13;13.97;;;-0.30;99.90;;;;;;4973812;28;20423;-70
2022/02/12 04:51:31;;;;;;;13.73;12.10;;;-0.40;99.90;;;;;;4973609;28;20419;-71
2022/02/12 04:53:58;;;;;;;18.57;14.27;;;-0.40;99.90;;;;;;4973665;28;20448;-70
2022/02/12 04:56:25;;;;;;;17.13;13.30;;;-0.40;99.90;;;;;;4973386;28;20459;-71
2022/02/12 04:58:51;;;;;;;15.60;13.20;;;-0.40;99.90;;;;;;4973734;28;20790;-70
2022/02/12 05:01:20;;;;;;;20.00;14.17;;;-0.40;99.90;;;;;;4973642;28;20498;-70
2022/02/12 05:03:49;;;;;;;16.80;12.90;;;-0.30;99.90;;;;;;4973482;28;20811;-70
2022/02/12 05:06:16;;;;;;;18.10;12.57;;;-0.30;99.90;;;;;;4973334;28;20900;-70
2022/02/12 05:08:42;;;;;;;18.03;12.87;;;-0.40;99.90;;;;;;4973601;28;20921;-70
2022/02/12 05:11:08;;;;;;;14.60;12.50;;;-0.40;99.90;;;;;;4973499;28;20416;-71
2022/02/12 05:13:33;;;;;;;20.27;12.93;;;-0.30;99.90;;;;;;4973375;28;20461;-69
2022/02/12 05:15:59;;;;;;;25.47;13.40;;;-0.40;99.90;;;;;;4973077;28;20701;-71
2022/02/12 05:18:24;;;;;;;17.40;12.97;;;-0.40;99.90;;;;;;4973358;28;20164;-70
2022/02/12 05:20:50;;;;;;;19.53;14.23;;;-0.40;99.90;;;;;;4973392;28;20173;-70
2022/02/12 05:23:15;;;;;;;18.20;12.80;;;-0.40;99.90;;;;;;4973342;28;20192;-71
2022/02/12 05:25:41;;;;;;;19.00;13.90;;;-0.40;99.90;;;;;;4973066;28;20248;-70
2022/02/12 05:28:06;;;;;;;19.03;14.47;;;-0.40;99.90;;;;;;4973290;28;20171;-70
2022/02/12 05:30:33;;;;;;;19.97;14.17;;;-0.50;99.90;;;;;;4973297;28;20223;-70
2022/02/12 05:32:59;;;;;;;23.03;14.47;;;-0.50;99.90;;;;;;4973195;28;20686;-71
2022/02/12 05:35:25;;;;;;;23.80;13.10;;;-0.50;99.90;;;;;;4972990;28;20837;-71
2022/02/12 05:37:51;;;;;;;16.97;12.33;;;-0.50;99.90;;;;;;4973104;28;20815;-71
2022/02/12 05:40:16;;;;;;;22.20;15.63;;;-0.60;99.90;;;;;;4988120;28;20527;-70
2022/02/12 05:42:42;;;;;;;20.60;13.90;;;-0.60;99.90;;;;;;4973063;28;20175;-70
2022/02/12 05:45:08;;;;;;;16.13;11.50;;;-0.60;99.90;;;;;;4972861;28;20172;-71
2022/02/12 05:47:38;;;;;;;15.90;12.20;;;-0.60;99.90;;;;;;4972959;28;20271;-71
2022/02/12 05:50:04;;;;;;;20.57;15.00;;;-0.70;99.90;;;;;;4973187;28;20423;-71
2022/02/12 05:52:30;;;;;;;19.43;12.93;;;-0.60;99.90;;;;;;4973148;28;20432;-70
2022/02/12 05:54:55;;;;;;;17.37;13.67;;;-0.70;99.90;;;;;;4972863;28;20525;-71
2022/02/12 05:57:21;;;;;;;18.33;12.30;;;-0.60;99.90;;;;;;4972726;28;20255;-71
2022/02/12 05:59:46;;;;;;;16.70;11.10;;;-0.70;99.90;;;;;;4973034;28;20172;-70
2022/02/12 06:02:12;;;;;;;16.30;12.50;;;-0.70;99.90;;;;;;4972878;28;20634;-70
2022/02/12 06:04:37;;;;;;;15.73;12.23;;;-0.80;99.90;;;;;;4976372;28;20251;-70
2022/02/12 06:07:03;;;;;;;20.93;12.63;;;-0.80;99.90;;;;;;4976579;28;20177;-71
2022/02/12 06:09:28;;;;;;;18.37;12.07;;;-0.80;99.90;;;;;;4976740;28;20176;-70
2022/02/12 06:11:54;;;;;;;17.93;12.67;;;-0.90;99.90;;;;;;4976824;28;20601;-70
2022/02/12 06:14:19;;;;;;;19.87;11.30;;;-0.90;99.90;;;;;;4976618;28;20188;-70
2022/02/12 06:16:45;;;;;;;19.83;12.80;;;-1.00;99.90;;;;;;4976217;28;20691;-70
2022/02/12 06:19:10;;;;;;;19.03;13.57;;;-1.00;99.90;;;;;;4976569;28;20176;-70
2022/02/12 06:21:36;;;;;;;14.40;11.50;;;-1.00;99.90;;;;;;4976602;28;20168;-70
2022/02/12 06:24:01;;;;;;;18.00;11.77;;;-1.00;99.90;;;;;;4976400;28;20721;-70
2022/02/12 06:26:27;;;;;;;15.33;12.03;;;-1.10;99.90;;;;;;4976194;28;20646;-71
2022/02/12 06:28:52;;;;;;;14.97;11.93;;;-1.10;99.90;;;;;;4976428;28;20180;-70
2022/02/12 06:31:18;;;;;;;15.00;10.73;;;-1.10;99.90;;;;;;4976313;28;20184;-69
2022/02/12 06:33:43;;;;;;;18.00;11.60;;;-1.10;99.90;;;;;;4976310;28;20255;-70
2022/02/12 06:36:09;;;;;;;17.73;12.40;;;-1.10;99.90;;;;;;4975865;28;20231;-71
2022/02/12 06:38:34;;;;;;;18.20;13.40;;;-1.10;99.90;;;;;;4976234;28;20180;-69
2022/02/12 06:41:00;;;;;;;14.63;11.90;;;-1.10;99.90;;;;;;4976014;28;20176;-70
2022/02/12 06:43:26;;;;;;;18.60;13.17;;;-1.10;99.90;;;;;;4976145;28;20331;-70
2022/02/12 06:45:51;;;;;;;17.47;12.10;;;-1.10;99.90;;;;;;4975737;28;20253;-70
2022/02/12 06:48:18;;;;;;;16.67;12.83;;;-1.10;99.90;;;;;;4975943;28;20180;-70
2022/02/12 06:50:44;;;;;;;15.70;13.83;;;-1.10;99.90;;;;;;4975987;28;20164;-70
2022/02/12 06:53:10;;;;;;;15.00;10.87;;;-1.10;99.90;;;;;;4975918;28;20446;-70
2022/02/12 06:55:35;;;;;;;18.20;13.27;;;-1.10;99.90;;;;;;4975587;28;20423;-70
2022/02/12 06:58:01;;;;;;;16.17;10.50;;;-1.10;99.90;;;;;;4975782;28;20207;-70
2022/02/12 07:00:28;;;;;;;12.50;10.50;;;-1.10;99.90;;;;;;4974508;28;20173;-70
2022/02/12 07:02:53;;;;;;;20.50;12.47;;;-1.10;99.90;;;;;;4975632;28;20172;-70
2022/02/12 07:05:19;;;;;;;17.67;13.13;;;-1.00;99.90;;;;;;4975452;28;20474;-70
2022/02/12 07:07:46;;;;;;;15.23;12.40;;;-1.10;99.90;;;;;;4975741;28;20180;-70
2022/02/12 07:10:13;;;;;;;16.30;11.17;;;-1.00;99.90;;;;;;4975624;28;20180;-70
2022/02/12 07:12:39;;;;;;;20.40;12.40;;;-0.90;99.90;;;;;;4975543;28;20429;-71
2022/02/12 07:15:05;;;;;;;18.47;13.17;;;-0.80;99.90;;;;;;4973893;28;20443;-71
2022/02/12 07:17:31;;;;;;;16.00;11.40;;;-0.80;99.90;;;;;;4975416;28;20299;-70
2022/02/12 07:19:56;;;;;;;15.00;11.53;;;-0.70;99.90;;;;;;4975427;28;20499;-70
2022/02/12 07:22:26;;;;;;;19.20;12.90;;;-0.60;99.90;;;;;;4975544;28;20251;-71
2022/02/12 07:24:52;;;;;;;17.00;12.80;;;-0.60;99.90;;;;;;4975197;28;20189;-71
2022/02/12 07:27:18;;;;;;;17.77;11.93;;;-0.50;99.90;;;;;;4975078;28;20486;-70
2022/02/12 07:29:44;;;;;;;24.63;12.80;;;-0.40;99.90;;;;;;4975070;28;20430;-70
2022/02/12 07:32:10;;;;;;;24.53;11.97;;;-0.20;99.90;;;;;;4975284;28;20420;-71
2022/02/12 07:34:35;;;;;;;24.13;13.30;;;-0.30;99.90;;;;;;4975245;28;20701;-71
2022/02/12 07:37:01;;;;;;;22.30;12.83;;;-0.30;99.90;;;;;;4974896;28;20208;-71
2022/02/12 07:39:27;;;;;;;32.07;12.70;;;-0.30;99.90;;;;;;4975028;28;20168;-71
2022/02/12 07:41:53;;;;;;;44.27;14.90;;;-0.10;99.90;;;;;;4975040;28;20581;-71
2022/02/12 07:44:19;;;;;;;21.87;11.93;;;-0.10;99.90;;;;;;4974959;28;20192;-70
2022/02/12 07:46:44;;;;;;;21.63;12.70;;;0.10;99.90;;;;;;4974629;28;20427;-70
2022/02/12 07:49:10;;;;;;;25.70;13.47;;;0.20;99.90;;;;;;4974951;28;20279;-71
2022/02/12 07:51:35;;;;;;;18.07;13.07;;;0.20;99.90;;;;;;4974791;28;20199;-71
2022/02/12 07:54:03;;;;;;;16.03;12.17;;;0.40;99.90;;;;;;4974740;28;20199;-70
2022/02/12 07:56:29;;;;;;;23.83;13.47;;;0.70;99.90;;;;;;4974395;28;20259;-71
2022/02/12 07:58:54;;;;;;;17.57;12.70;;;0.90;99.90;;;;;;4974636;28;20424;-71
2022/02/12 08:01:20;;;;;;;19.13;12.20;;;1.40;99.90;;;;;;4974640;28;20516;-71
2022/02/12 08:03:45;;;;;;;20.83;14.67;;;1.70;99.90;;;;;;4974629;28;20192;-70
2022/02/12 08:07:27;;;;;;;21.87;14.80;;;2.10;99.90;;;;;;4974375;28;20234;-71
2022/02/12 08:08:56;;;;;;;16.50;12.30;;;2.60;99.90;;;;;;4974543;28;20330;-71
2022/02/12 08:11:23;;;;;;;23.50;14.73;;;3.20;99.90;;;;;;4974386;28;20511;-72
2022/02/12 08:13:50;;;;;;;21.20;13.23;;;3.60;99.90;;;;;;4974302;28;20211;-71
2022/02/12 08:16:16;;;;;;;19.57;14.40;;;4.20;99.90;;;;;;4974249;28;20552;-71
2022/02/12 08:18:41;;;;;;;25.10;15.00;;;4.70;99.90;;;;;;4974369;28;20919;-71
2022/02/12 08:21:07;;;;;;;17.00;13.50;;;5.30;99.90;;;;;;4974270;28;20726;-70
2022/02/12 08:23:32;;;;;;;17.87;12.87;;;5.90;99.90;;;;;;4974233;28;20192;-72
2022/02/12 08:25:58;;;;;;;21.60;15.37;;;6.40;99.90;;;;;;4973515;28;20263;-71
2022/02/12 08:28:24;;;;;;;19.10;13.80;;;6.90;99.90;;;;;;4974358;28;20165;-71
2022/02/12 08:30:49;;;;;;;16.43;14.70;;;7.60;99.90;;;;;;4974190;28;20176;-72
2022/02/12 08:33:15;;;;;;;17.20;13.10;;;8.00;99.90;;;;;;4973993;28;20188;-71
2022/02/12 08:35:40;;;;;;;14.30;12.90;;;8.50;99.90;;;;;;4973824;28;20640;-72
2022/02/12 08:38:06;;;;;;;12.77;8.97;;;8.90;99.90;;;;;;4973969;28;20562;-72
2022/02/12 08:40:32;;;;;;;10.87;7.40;;;9.50;99.90;;;;;;4973780;28;20576;-71
2022/02/12 08:42:58;;;;;;;9.97;8.97;;;9.60;99.90;;;;;;4973848;28;20486;-72
2022/02/12 08:45:24;;;;;;;9.30;8.23;;;10.30;99.90;;;;;;4973627;28;20415;-72
2022/02/12 08:47:50;;;;;;;9.90;7.53;;;11.00;99.90;;;;;;4973529;28;20192;-71
2022/02/12 08:50:16;;;;;;;9.90;8.80;;;11.10;99.60;;;;;;4973788;28;20504;-72
2022/02/12 08:52:43;;;;;;;10.23;7.80;;;11.40;99.70;;;;;;4973709;28;20180;-72
2022/02/12 08:55:10;;;;;;;7.10;6.40;;;10.60;99.70;;;;;;4973338;28;20944;-72
2022/02/12 08:57:36;;;;;;;10.63;7.87;;;11.10;98.70;;;;;;4973604;28;20459;-72
2022/02/12 09:00:04;;;;;;;8.70;7.10;;;10.70;99.30;;;;;;4973625;28;20420;-71
2022/02/12 09:02:29;;;;;;;11.20;7.30;;;10.40;99.70;;;;;;4973587;28;20412;-72
2022/02/12 09:04:55;;;;;;;10.30;7.80;;;10.40;99.00;;;;;;4973398;28;20808;-70
2022/02/12 09:07:20;;;;;;;15.30;7.50;;;9.10;99.90;;;;;;4973220;28;20226;-72
2022/02/12 09:09:46;;;;;;;9.20;7.67;;;8.80;99.90;;;;;;4973321;28;20184;-71
2022/02/12 09:12:12;;;;;;;13.77;8.77;;;8.50;99.90;;;;;;4973495;28;20524;-72
2022/02/12 09:14:38;;;;;;;13.13;7.27;;;8.80;99.90;;;;;;4973325;28;20448;-71
2022/02/12 09:17:05;;;;;;;16.00;8.07;;;9.10;99.90;;;;;;4973080;28;20275;-72
2022/02/12 09:19:31;;;;;;;12.03;8.07;;;8.50;99.90;;;;;;4973384;28;20582;-71
2022/02/12 09:21:56;;;;;;;12.80;7.23;;;8.50;99.90;;;;;;4973280;28;20419;-71
2022/02/12 09:24:22;;;;;;;9.63;7.20;;;8.70;99.90;;;;;;4973195;28;20820;-72
2022/02/12 09:26:47;;;;;;;8.23;6.10;;;8.80;99.90;;;;;;4973064;28;20168;-72
2022/02/12 09:29:13;;;;;;;10.57;7.40;;;9.40;99.90;;;;;;4973352;28;20638;-72
2022/02/12 09:31:38;;;;;;;10.33;8.10;;;8.90;99.90;;;;;;4973237;28;20172;-71
2022/02/12 09:34:05;;;;;;;11.53;6.70;;;8.80;99.90;;;;;;4973223;28;20290;-71
2022/02/12 09:36:31;;;;;;;10.33;6.70;;;9.30;99.90;;;;;;4972861;28;20192;-71
2022/02/12 09:38:57;;;;;;;8.17;6.67;;;9.30;99.90;;;;;;4975735;28;20408;-70
2022/02/12 09:41:23;;;;;;;8.60;6.40;;;8.90;99.90;;;;;;4977159;28;20203;-71
2022/02/12 09:43:53;;;;;;;8.37;6.20;;;9.10;99.90;;;;;;4977104;28;20184;-72
2022/02/12 09:46:35;;;;;;;8.43;5.93;;;9.20;99.80;;;;;;4976800;28;20495;-70
2022/02/12 09:49:03;;;;;;;10.93;5.60;;;9.80;99.20;;;;;;4977063;28;20526;-72
2022/02/12 09:51:30;;;;;;;10.13;6.10;;;10.30;98.00;;;;;;4977043;28;20415;-71
2022/02/12 09:53:57;;;;;;;8.10;6.73;;;11.00;97.30;;;;;;4976929;28;20435;-71
2022/02/12 09:56:23;;;;;;;10.83;6.90;;;11.30;96.60;;;;;;4976865;28;21000;-71
2022/02/12 09:58:49;;;;;;;7.10;6.40;;;11.10;95.50;;;;;;4976858;28;20427;-71
2022/02/12 10:01:17;;;;;;;13.77;6.50;;;10.60;95.90;;;;;;4976918;28;20182;-71
2022/02/12 10:03:42;;;;;;;12.50;6.90;;;10.80;95.50;;;;;;4976721;28;20858;-71
2022/02/12 10:06:09;;;;;;;15.37;7.87;;;11.00;94.30;;;;;;4976567;28;20452;-71
2022/02/12 10:08:37;;;;;;;8.90;6.23;;;12.20;94.40;;;;;;4976769;28;20204;-72
2022/02/12 10:11:20;;;;;;;12.03;6.70;;;12.50;92.50;;;;;;4976764;28;20430;-71
2022/02/12 10:13:46;;;;;;;13.27;9.80;;;12.60;91.20;;;;;;4976697;28;20494;-72
2022/02/12 10:16:11;;;;;;;10.37;7.77;;;14.80;87.10;;;;;;4975344;28;20463;-71
2022/02/12 10:18:40;;;;;;;12.10;8.20;;;14.90;82.30;;;;;;4976409;28;20200;-70
2022/02/12 10:21:08;;;;;;;11.37;8.80;;;16.70;74.40;;;;;;4976445;28;20235;-71
2022/02/12 10:23:38;;;;;;;8.73;6.23;;;17.60;66.80;;;;;;4976425;28;20477;-72
2022/02/12 10:26:11;;;;;;;8.07;6.47;;;17.60;61.50;;;;;;4976592;28;20434;-71
2022/02/12 10:28:45;;;;;;;12.57;6.57;;;16.30;62.20;;;;;;4976436;28;20478;-71
2022/02/12 10:31:12;;;;;;;10.13;7.10;;;16.60;61.70;;;;;;4976347;28;20447;-71
2022/02/12 10:33:43;;;;;;;10.10;6.70;;;14.60;63.90;;;;;;4976229;28;20443;-71
2022/02/12 10:36:14;;;;;;;6.93;5.63;;;14.60;66.10;;;;;;4975850;28;20493;-71
2022/02/12 10:38:48;;;;;;;13.37;5.87;;;16.10;63.10;;;;;;4976205;28;20609;-71
2022/02/12 10:41:16;;;;;;;9.33;7.17;;;16.00;60.40;;;;;;4976121;28;20541;-71
2022/02/12 10:43:45;;;;;;;7.93;6.13;;;17.50;59.30;;;;;;4976028;28;20458;-71
2022/02/12 10:46:11;;;;;;;15.03;7.70;;;18.70;57.70;;;;;;4975738;28;20894;-71
2022/02/12 10:48:40;;;;;;;8.10;6.80;;;18.10;55.90;;;;;;4975701;28;20483;-71
2022/02/12 10:51:11;;;;;;;8.47;6.73;;;18.70;55.90;;;;;;4975971;28;20173;-71
2022/02/12 10:53:58;;;;;;;8.17;6.63;;;17.70;54.70;;;;;;4975850;28;20518;-71
2022/02/12 10:56:45;;;;;;;8.30;7.07;;;17.30;56.50;;;;;;4975425;28;20937;-71
2022/02/12 10:59:12;;;;;;;18.03;9.90;;;17.50;55.80;;;;;;4975879;28;20419;-71
2022/02/12 11:01:38;;;;;;;6.53;5.93;;;17.30;56.20;;;;;;4975820;28;20437;-71
2022/02/12 11:04:05;;;;;;;8.60;7.37;;;18.20;54.10;;;;;;4975595;28;20948;-71
2022/02/12 11:06:31;;;;;;;16.70;6.90;;;18.30;52.90;;;;;;4975315;28;20650;-71
2022/02/12 11:08:57;;;;;;;8.37;7.00;;;18.90;53.00;;;;;;4975598;28;20431;-71
2022/02/12 11:11:24;;;;;;;9.40;8.20;;;20.00;51.00;;;;;;4975546;28;20427;-71
2022/02/12 11:13:50;;;;;;;12.23;7.70;;;20.10;49.50;;;;;;4975483;28;20527;-71
2022/02/12 11:16:16;;;;;;;10.83;7.30;;;17.80;52.30;;;;;;4975152;28;21244;-71
2022/02/12 11:18:42;;;;;;;12.17;7.50;;;17.10;53.70;;;;;;4975420;28;20184;-71
2022/02/12 11:21:08;;;;;;;9.13;6.37;;;17.20;52.50;;;;;;4975384;28;20424;-71
2022/02/12 11:23:34;;;;;;;9.07;7.80;;;17.00;52.80;;;;;;4975326;28;21036;-71
2022/02/12 11:26:02;;;;;;;8.00;6.57;;;17.70;53.10;;;;;;4975086;28;20259;-71
2022/02/12 11:28:30;;;;;;;8.13;6.73;;;19.50;51.40;;;;;;4975420;28;20169;-71
2022/02/12 11:31:14;;;;;;;7.90;7.00;;;19.00;49.60;;;;;;4975233;28;20448;-71
2022/02/12 11:34:17;;;;;;;7.20;6.57;;;17.20;50.70;;;;;;4975371;28;20447;-70
2022/02/12 11:36:45;;;;;;;10.17;7.00;;;16.20;53.60;;;;;;4974758;28;20454;-71
2022/02/12 11:39:18;;;;;;;11.57;7.77;;;17.10;52.60;;;;;;4975219;28;20470;-70
2022/02/12 11:41:49;;;;;;;10.40;7.33;;;18.20;51.40;;;;;;4975114;28;20470;-71
2022/02/12 11:44:48;;;;;;;12.10;8.03;;;19.10;49.80;;;;;;4974945;28;20447;-71
2022/02/12 11:47:14;;;;;;;8.27;7.53;;;20.10;49.00;;;;;;4974584;28;20439;-71
2022/02/12 11:49:41;;;;;;;7.40;6.53;;;19.90;49.20;;;;;;4974923;28;20436;-71
2022/02/12 11:52:11;;;;;;;7.37;6.47;;;20.70;48.20;;;;;;4974772;28;20423;-71
2022/02/12 11:54:59;;;;;;;7.77;6.70;;;20.90;47.30;;;;;;4974779;28;20432;-70
2022/02/12 11:57:27;;;;;;;7.83;6.23;;;20.40;45.60;;;;;;4974949;28;20463;-71
2022/02/12 11:59:59;;;;;;;8.60;5.83;;;19.80;45.90;;;;;;4974695;28;20412;-71
2022/02/12 12:02:40;;;;;;;8.90;6.10;;;19.50;45.20;;;;;;4974145;28;20427;-71
2022/02/12 12:05:19;;;;;;;7.73;6.73;;;18.60;46.60;;;;;;4974219;28;20439;-70
2022/02/12 12:08:11;;;;;;;7.27;6.53;;;18.70;47.00;;;;;;4974601;28;20937;-70
2022/02/12 12:11:00;;;;;;;7.97;6.77;;;18.60;47.10;;;;;;4969941;28;20901;-71
2022/02/12 12:13:26;;;;;;;8.40;6.70;;;18.20;46.90;;;;;;4974338;28;20952;-71
2022/02/12 12:15:56;;;;;;;7.43;6.73;;;17.60;48.20;;;;;;4974137;28;20442;-71
2022/02/12 12:18:25;;;;;;;6.90;6.20;;;18.10;48.00;;;;;;4974336;28;20188;-70
2022/02/12 12:20:50;;;;;;;10.50;8.53;;;19.00;46.60;;;;;;4974239;28;20424;-71
2022/02/12 12:23:17;;;;;;;6.53;5.80;;;18.00;46.80;;;;;;4974090;28;20494;-71
2022/02/12 12:25:57;;;;;;;8.20;6.23;;;18.20;45.80;;;;;;4973886;28;20176;-71
2022/02/12 12:28:32;;;;;;;5.50;5.00;;;19.20;46.40;;;;;;4974229;28;20785;-71
2022/02/12 12:31:02;;;;;;;9.00;5.83;;;20.00;43.50;;;;;;4974237;28;20422;-71
2022/02/12 12:33:27;;;;;;;5.17;4.67;;;20.40;43.10;;;;;;4974030;28;20941;-71
2022/02/12 12:35:55;;;;;;;5.03;3.93;;;20.40;42.10;;;;;;4973675;28;20519;-71
2022/02/12 12:38:33;;;;;;;5.27;4.73;;;20.20;43.00;;;;;;4973908;28;20187;-71
2022/02/12 12:40:59;;;;;;;4.90;4.37;;;19.90;42.20;;;;;;4973942;28;20428;-70
2022/02/12 12:43:26;;;;;;;4.10;3.73;;;20.00;41.80;;;;;;4973842;28;20513;-71